• Join FlightAware (Why Join?)
  • Login
  • US Flag GB Flag 
03:14 EDT


 

Airport Tracker/Info


-or-


 

Live Flight TrackerFlight Track Log ✈ N510SR ✈ 18-Jun-2013 ✈ KTEB - KABE

Flight Track Log - Related Links

Times and Time Zones

All times are in EDT time to prevent confusion due to time zone crossing. See the N510SR flight status page for this flight to view local times or setup timezone preferences in your user account.

Time Position Orientation Groundspeed Altitude Reporting Facility
EDT Latitude Longitude Course Direction KTS MPH feet Rate Location/Type
22:34 40.9333 -74.1000 288° West 257 296 4,100  Level New York TRACON
22:35 40.9167 -74.2000 258° West 267 307 4,100  Level New York TRACON
22:36 40.9000 -74.3000 258° West 274 315 4,100  Level New York TRACON
22:37 40.8667 -74.4167 249° West 271 312 4,100  Level New York TRACON
22:38 40.7054 -74.3988 242° Southwest  Level FlightAware Approximate
22:38 40.8667 -74.4833 270° West 273 314 4,100  Level New York TRACON
22:40 40.8402 -74.6040 254° West  Level Estimated
22:47 40.7189 -75.1476 254° West  Level Estimated
22:48 40.7014 -75.2251 253° West  Level Estimated
22:49 40.6838 -75.3025 253° West  Level Estimated
22:50 40.6662 -75.3799 253° West  Level Estimated
22:51 40.6524 -75.4404 253° West  Level Estimated
22:52 40.6524 -75.4404 66° East  Level Estimated
22:53 40.6524 -75.4404 66° East  Level Estimated
22:54 40.6524 -75.4404 66° East  Level Estimated
22:55 40.6524 -75.4404 66° East  Level Estimated
22:56 40.6524 -75.4404 66° East  Level Estimated
22:57 40.6524 -75.4404 66° East  Level Estimated
22:58 40.6524 -75.4404 66° East  Level Estimated
22:59 40.6524 -75.4404 66° East  Level Estimated
23:00 40.6524 -75.4404 66° East  Level Estimated
23:01 40.6524 -75.4404 66° East  Level Estimated
23:02 40.6524 -75.4404 66° East  Level Estimated
23:03 40.6524 -75.4404 66° East  Level Estimated